Terminal Aerodrome Forecast
Issued by NWS Jackson, MS

Home | Current Version | Previous Version | Text Only | Print | Product List | Glossary On
Versions: 1 2 3 4 5 6 7 8 9 10 11 12
000
FTUS44 KJAN 182300 RRA
TAFJAN
TAF
KJAN 182353Z 1900/1924 12004KT P6SM SCT040 BKN120
     FM190900 05004KT P6SM OVC025
     FM191400 05006KT P6SM -RA OVC015
     FM192000 05005KT 4SM RA BKN008 OVC015=

USA.gov is the U.S. government's official web portal to all federal, state and local government web resources and services.